createdAt,value
2022-10-23T00:02:17.150Z,16.24
2022-10-23T00:04:52.546Z,16.28
2022-10-23T00:07:21.181Z,16.10
2022-10-23T00:09:49.967Z,16.01
2022-10-23T00:12:18.555Z,16.17
2022-10-23T00:14:47.290Z,16.23
2022-10-23T00:17:17.185Z,16.22
2022-10-23T00:19:46.099Z,16.20
2022-10-23T00:22:14.630Z,16.24
2022-10-23T00:24:43.095Z,16.34
2022-10-23T00:27:11.553Z,16.41
2022-10-23T00:29:40.130Z,16.46
2022-10-23T00:32:08.619Z,16.47
2022-10-23T00:34:38.491Z,16.52
2022-10-23T00:37:07.376Z,16.54
2022-10-23T00:39:44.117Z,16.52
2022-10-23T00:42:15.325Z,16.46
2022-10-23T00:45:16.989Z,16.50
2022-10-23T00:47:46.259Z,16.53
2022-10-23T00:50:17.015Z,16.52
2022-10-23T00:52:49.897Z,16.23
2022-10-23T00:55:21.201Z,16.59
2022-10-23T00:57:53.697Z,16.53
2022-10-23T01:00:25.148Z,16.69
2022-10-23T01:02:54.565Z,16.49
2022-10-23T01:05:29.157Z,16.58
2022-10-23T01:08:03.828Z,16.55
2022-10-23T01:10:38.250Z,16.58
2022-10-23T01:13:16.664Z,16.58
2022-10-23T01:15:53.621Z,16.49
2022-10-23T01:18:28.236Z,16.50
2022-10-23T01:21:04.394Z,16.59
2022-10-23T01:24:11.183Z,16.60
2022-10-23T01:26:56.600Z,16.62
2022-10-23T01:29:33.271Z,16.63
2022-10-23T01:32:09.442Z,16.70
2022-10-23T01:34:45.655Z,16.75
2022-10-23T01:37:17.345Z,16.73
2022-10-23T01:39:49.401Z,16.70
2022-10-23T01:42:21.348Z,16.71
2022-10-23T01:44:55.019Z,16.64
2022-10-23T01:47:28.380Z,16.74
2022-10-23T01:50:04.190Z,16.56
2022-10-23T01:52:33.055Z,16.68
2022-10-23T01:55:03.012Z,16.65
2022-10-23T01:57:36.718Z,16.63
2022-10-23T02:00:10.126Z,16.57
2022-10-23T02:02:54.087Z,16.65
2022-10-23T02:05:28.749Z,16.67
2022-10-23T02:07:59.586Z,16.72
2022-10-23T02:10:35.401Z,16.77
2022-10-23T02:13:10.418Z,16.66
2022-10-23T02:15:46.928Z,16.78
2022-10-23T02:18:24.072Z,16.78
2022-10-23T02:20:57.583Z,16.85
2022-10-23T02:23:34.011Z,16.82
2022-10-23T02:26:10.864Z,16.80
2022-10-23T02:28:44.720Z,16.83
2022-10-23T02:31:18.181Z,16.84
2022-10-23T02:33:48.396Z,16.88
2022-10-23T02:36:17.699Z,16.86
2022-10-23T02:38:51.246Z,16.79
2022-10-23T02:41:33.307Z,16.92
2022-10-23T02:44:14.487Z,16.86
2022-10-23T02:46:54.824Z,16.79
2022-10-23T02:49:29.607Z,16.71
2022-10-23T02:52:09.101Z,16.80
2022-10-23T02:54:50.375Z,16.81
2022-10-23T02:57:27.194Z,16.96
2022-10-23T03:00:05.982Z,17.01
2022-10-23T03:02:40.370Z,16.99
2022-10-23T03:05:12.810Z,17.10
2022-10-23T03:07:42.482Z,17.03
2022-10-23T03:10:13.116Z,17.13
2022-10-23T03:12:41.756Z,17.18
2022-10-23T03:15:13.205Z,17.18
2022-10-23T03:17:43.270Z,17.17
2022-10-23T03:20:12.869Z,17.07
2022-10-23T03:22:41.751Z,17.10
2022-10-23T03:25:11.628Z,17.10
2022-10-23T03:27:40.109Z,17.03
2022-10-23T03:30:12.183Z,17.06
2022-10-23T03:32:43.348Z,16.92
2022-10-23T03:35:12.004Z,16.91
2022-10-23T03:37:40.698Z,16.89
2022-10-23T03:40:10.666Z,16.80
2022-10-23T03:42:39.266Z,16.56
2022-10-23T03:45:08.389Z,16.56
2022-10-23T03:47:41.403Z,16.66
2022-10-23T03:50:13.603Z,16.76
2022-10-23T03:52:42.503Z,16.72
2022-10-23T03:55:14.020Z,16.91
2022-10-23T03:57:42.516Z,17.09
2022-10-23T04:00:12.330Z,17.10
2022-10-23T04:02:48.253Z,16.93
2022-10-23T04:05:19.349Z,17.05
2022-10-23T04:07:55.750Z,16.93
2022-10-23T04:10:24.449Z,16.56
2022-10-23T04:12:52.895Z,16.44
2022-10-23T04:15:21.599Z,16.22
2022-10-23T04:17:50.091Z,16.01
2022-10-23T04:20:20.009Z,15.94
2022-10-23T04:22:48.487Z,15.86
2022-10-23T04:25:17.830Z,15.85
2022-10-23T04:27:46.836Z,15.83
2022-10-23T04:30:15.436Z,15.82
2022-10-23T04:32:45.218Z,15.85
2022-10-23T04:35:13.639Z,15.62
2022-10-23T04:37:43.686Z,15.51
2022-10-23T04:40:12.997Z,15.40
2022-10-23T04:42:41.733Z,15.28
2022-10-23T04:45:10.977Z,15.22
2022-10-23T04:47:39.459Z,15.22
2022-10-23T04:50:08.788Z,15.23
2022-10-23T04:52:59.626Z,15.22
2022-10-23T04:55:50.984Z,15.28
2022-10-23T04:58:28.620Z,15.30
2022-10-23T05:04:01.114Z,15.31
2022-10-23T05:06:29.865Z,15.25
2022-10-23T05:09:15.085Z,15.22
2022-10-23T05:11:55.118Z,15.20
2022-10-23T05:14:23.743Z,15.14
2022-10-23T05:16:55.446Z,15.14
2022-10-23T05:19:28.697Z,15.19
2022-10-23T05:21:58.176Z,15.17
2022-10-23T05:24:30.305Z,15.21
2022-10-23T05:27:02.113Z,15.14
2022-10-23T05:29:32.811Z,15.20
2022-10-23T05:32:04.818Z,15.21
2022-10-23T05:34:36.705Z,15.28
2022-10-23T05:37:08.958Z,15.23
2022-10-23T05:39:41.153Z,15.21
2022-10-23T05:42:15.397Z,15.22
2022-10-23T05:44:44.061Z,15.25
2022-10-23T05:47:12.455Z,15.20
2022-10-23T05:50:01.169Z,15.25
2022-10-23T05:52:50.050Z,15.30
2022-10-23T05:55:33.203Z,15.27
2022-10-23T05:58:17.236Z,15.26
2022-10-23T06:01:13.245Z,15.25
2022-10-23T06:04:00.728Z,15.31
2022-10-23T06:06:49.872Z,15.29
2022-10-23T06:09:19.475Z,15.34
2022-10-23T06:11:50.534Z,15.38
2022-10-23T06:14:22.475Z,15.33
2022-10-23T06:16:52.954Z,15.39
2022-10-23T06:19:22.110Z,15.46
2022-10-23T06:21:55.061Z,15.54
2022-10-23T06:24:31.825Z,15.53
2022-10-23T06:27:06.466Z,15.59
2022-10-23T06:29:43.701Z,15.63
2022-10-23T06:32:12.130Z,15.63
2022-10-23T06:34:42.105Z,15.59
2022-10-23T06:37:10.914Z,15.55
2022-10-23T06:39:46.680Z,15.48
2022-10-23T06:42:19.706Z,15.52
2022-10-23T06:44:53.670Z,15.49
2022-10-23T06:47:45.407Z,15.54
2022-10-23T06:50:40.574Z,15.53
2022-10-23T06:53:13.939Z,15.50
2022-10-23T06:55:51.408Z,15.42
2022-10-23T06:58:25.995Z,15.57
2022-10-23T07:01:07.580Z,15.52
2022-10-23T07:03:36.655Z,15.53
2022-10-23T07:06:10.930Z,15.46
2022-10-23T07:08:40.080Z,15.62
2022-10-23T07:11:31.537Z,15.58
2022-10-23T07:14:01.640Z,15.65
2022-10-23T07:16:31.091Z,15.66
2022-10-23T07:19:01.921Z,15.66
2022-10-23T07:21:32.494Z,15.75
2022-10-23T07:24:31.514Z,15.71
2022-10-23T07:27:02.817Z,15.69
2022-10-23T07:29:33.692Z,15.49
2022-10-23T07:32:02.179Z,15.72
2022-10-23T07:34:49.232Z,15.77
2022-10-23T07:37:31.097Z,15.87
2022-10-23T07:40:02.285Z,15.89
2022-10-23T07:42:31.561Z,16.00
2022-10-23T07:45:01.581Z,16.10
2022-10-23T07:47:32.684Z,16.17
2022-10-23T07:50:02.870Z,16.11
2022-10-23T07:52:34.982Z,16.14
2022-10-23T07:55:12.081Z,16.05
2022-10-23T07:58:01.014Z,16.04
2022-10-23T08:00:42.516Z,16.16
2022-10-23T08:03:18.398Z,16.16
2022-10-23T08:05:48.344Z,16.07
2022-10-23T08:08:17.181Z,16.04
2022-10-23T08:10:50.104Z,15.85
2022-10-23T08:13:25.267Z,16.03
2022-10-23T08:16:05.880Z,16.03
2022-10-23T08:18:54.281Z,16.09
2022-10-23T08:21:23.222Z,16.29
2022-10-23T08:23:56.005Z,16.43
2022-10-23T08:26:26.664Z,16.59
2022-10-23T08:28:55.586Z,16.77
2022-10-23T08:31:26.663Z,16.89
2022-10-23T08:34:15.458Z,17.11
2022-10-23T08:36:46.616Z,17.41
2022-10-23T08:39:16.151Z,17.63
2022-10-23T08:41:59.599Z,18.07
2022-10-23T08:44:34.331Z,18.86
2022-10-23T08:47:09.845Z,19.59
2022-10-23T08:50:01.012Z,18.45
2022-10-23T08:52:35.045Z,18.68
2022-10-23T08:55:15.196Z,19.56
2022-10-23T08:57:52.691Z,19.41
2022-10-23T09:00:21.602Z,19.21
2022-10-23T09:02:53.915Z,19.07
2022-10-23T09:05:33.862Z,19.12
2022-10-23T09:08:13.776Z,18.69
2022-10-23T09:10:59.803Z,18.06
2022-10-23T09:14:10.639Z,17.69
2022-10-23T09:16:52.567Z,17.80
2022-10-23T09:19:27.182Z,17.88
2022-10-23T09:21:57.823Z,18.50
2022-10-23T09:24:31.728Z,20.01
2022-10-23T09:27:00.943Z,21.46
2022-10-23T09:29:33.090Z,22.34
2022-10-23T09:32:03.851Z,23.52
2022-10-23T09:34:36.139Z,23.13
2022-10-23T09:37:20.208Z,22.37
2022-10-23T09:39:50.172Z,22.90
2022-10-23T09:42:24.696Z,23.08
2022-10-23T09:44:55.621Z,21.81
2022-10-23T09:47:28.331Z,21.15
2022-10-23T09:49:58.913Z,20.81
2022-10-23T09:52:36.919Z,21.21
2022-10-23T09:55:21.637Z,21.09
2022-10-23T09:57:51.426Z,21.43
2022-10-23T10:00:22.369Z,21.76
2022-10-23T10:02:59.193Z,21.75
2022-10-23T10:05:34.179Z,20.76
2022-10-23T10:08:15.447Z,20.15
2022-10-23T10:10:50.808Z,20.51
2022-10-23T10:13:36.747Z,20.37
2022-10-23T10:16:12.843Z,19.92
2022-10-23T10:18:48.857Z,20.63
2022-10-23T10:21:22.925Z,21.59
2022-10-23T10:23:57.923Z,20.04
2022-10-23T10:26:36.116Z,19.96
2022-10-23T10:29:17.971Z,20.39
2022-10-23T10:32:02.077Z,20.55
2022-10-23T10:34:40.785Z,20.51
2022-10-23T10:37:21.471Z,20.38
2022-10-23T10:39:59.839Z,21.41
2022-10-23T10:42:45.345Z,22.01
2022-10-23T10:45:28.219Z,21.81
2022-10-23T10:48:31.459Z,21.96
2022-10-23T10:51:43.740Z,24.25
2022-10-23T10:54:29.664Z,23.83
2022-10-23T10:57:01.625Z,21.58
2022-10-23T10:59:33.424Z,21.42
2022-10-23T11:02:07.482Z,21.25
2022-10-23T11:04:42.289Z,22.32
2022-10-23T11:07:16.217Z,22.08
2022-10-23T11:09:46.880Z,21.59
2022-10-23T11:12:19.833Z,22.59
2022-10-23T11:14:48.384Z,22.89
2022-10-23T11:17:24.446Z,23.90
2022-10-23T11:20:02.458Z,24.46
2022-10-23T11:22:37.986Z,22.24
2022-10-23T11:25:34.744Z,22.19
2022-10-23T11:28:19.648Z,23.28
2022-10-23T11:31:10.830Z,22.85
2022-10-23T11:34:18.865Z,22.11
2022-10-23T11:36:51.644Z,21.46
2022-10-23T11:39:24.260Z,21.88
2022-10-23T11:41:59.045Z,22.84
2022-10-23T11:44:40.731Z,23.89
2022-10-23T11:47:29.010Z,22.72
2022-10-23T11:50:28.857Z,22.85
2022-10-23T11:53:21.226Z,22.45
2022-10-23T11:56:01.273Z,22.21
2022-10-23T11:58:43.616Z,21.69
2022-10-23T12:01:32.384Z,21.46
2022-10-23T12:04:05.228Z,22.60
2022-10-23T12:06:40.112Z,21.73
2022-10-23T12:09:23.056Z,21.64
2022-10-23T12:12:05.505Z,21.72
2022-10-23T12:14:38.185Z,21.55
2022-10-23T12:17:30.596Z,20.80
2022-10-23T12:20:19.361Z,21.06
2022-10-23T12:22:56.078Z,21.36
2022-10-23T12:25:29.138Z,22.06
2022-10-23T12:28:05.044Z,22.07
2022-10-23T12:30:43.561Z,21.68
2022-10-23T12:33:24.829Z,22.24
2022-10-23T12:36:08.128Z,21.79
2022-10-23T12:38:44.986Z,21.38
2022-10-23T12:41:16.372Z,21.46
2022-10-23T12:43:54.767Z,21.72
2022-10-23T12:46:32.078Z,21.42
2022-10-23T12:49:04.021Z,21.12
2022-10-23T12:51:34.474Z,21.40
2022-10-23T12:54:04.323Z,21.93
2022-10-23T12:56:39.087Z,22.15
2022-10-23T12:59:16.259Z,22.63
2022-10-23T13:01:50.431Z,22.07
2022-10-23T13:04:28.964Z,21.67
2022-10-23T13:06:59.706Z,21.30
2022-10-23T13:09:31.407Z,20.65
2022-10-23T13:12:24.731Z,20.45
2022-10-23T13:14:59.566Z,20.01
2022-10-23T13:17:42.192Z,20.10
2022-10-23T13:20:20.463Z,20.04
2022-10-23T13:22:50.536Z,19.91
2022-10-23T13:25:25.106Z,19.92
2022-10-23T13:28:04.303Z,19.92
2022-10-23T13:30:34.208Z,19.74
2022-10-23T13:33:15.478Z,19.61
2022-10-23T13:35:44.743Z,19.63
2022-10-23T13:38:13.192Z,19.68
2022-10-23T13:40:42.022Z,19.73
2022-10-23T13:43:16.182Z,20.01
2022-10-23T13:45:44.599Z,19.72
2022-10-23T13:48:16.268Z,19.51
2022-10-23T13:50:44.854Z,19.46
2022-10-23T13:53:14.309Z,19.34
2022-10-23T13:55:44.810Z,19.46
2022-10-23T13:58:13.317Z,19.41
2022-10-23T14:00:44.709Z,19.43
2022-10-23T14:03:14.534Z,19.21
2022-10-23T14:05:42.966Z,19.30
2022-10-23T14:08:11.807Z,19.33
2022-10-23T14:10:40.266Z,19.46
2022-10-23T14:13:08.725Z,19.52
2022-10-23T14:15:37.165Z,19.55
2022-10-23T14:18:08.181Z,19.29
2022-10-23T14:20:39.686Z,18.93
2022-10-23T14:23:08.176Z,18.69
2022-10-23T14:25:36.889Z,18.82
2022-10-23T14:28:05.541Z,19.09
2022-10-23T14:30:34.211Z,19.12
2022-10-23T14:33:02.909Z,19.31
2022-10-23T14:35:31.769Z,19.48
2022-10-23T14:38:01.644Z,19.65
2022-10-23T14:40:30.597Z,19.71
2022-10-23T14:42:59.346Z,19.71
2022-10-23T14:45:29.813Z,19.38
2022-10-23T14:47:58.370Z,19.33
2022-10-23T14:50:26.786Z,19.61
2022-10-23T14:52:55.237Z,19.55
2022-10-23T14:55:25.098Z,19.74
2022-10-23T14:57:56.244Z,19.46
2022-10-23T15:00:25.356Z,19.46
2022-10-23T15:02:53.932Z,19.35
2022-10-23T15:05:22.399Z,19.18
2022-10-23T15:07:50.916Z,19.17
2022-10-23T15:10:19.496Z,19.50
2022-10-23T15:12:49.458Z,19.42
2022-10-23T15:15:18.771Z,19.59
2022-10-23T15:17:47.244Z,19.60
2022-10-23T15:20:15.748Z,19.33
2022-10-23T15:22:44.491Z,19.43
2022-10-23T15:25:17.007Z,19.24
2022-10-23T15:27:46.606Z,19.04
2022-10-23T15:30:17.196Z,18.99
2022-10-23T15:32:46.651Z,18.99
2022-10-23T15:35:15.187Z,18.79
2022-10-23T15:37:43.924Z,18.46
2022-10-23T15:40:13.445Z,18.22
2022-10-23T15:42:42.799Z,18.31
2022-10-23T15:45:14.244Z,18.31
2022-10-23T15:47:44.411Z,18.51
2022-10-23T15:50:13.103Z,18.52
2022-10-23T15:52:41.772Z,18.64
2022-10-23T15:55:11.855Z,18.65
2022-10-23T15:57:40.410Z,18.75
2022-10-23T16:00:11.750Z,18.67
2022-10-23T16:02:40.361Z,18.78
2022-10-23T16:05:10.681Z,18.68
2022-10-23T16:07:39.139Z,18.75
2022-10-23T16:10:08.347Z,18.86
2022-10-23T16:12:36.882Z,18.73
2022-10-23T16:15:08.115Z,18.81
2022-10-23T16:17:36.695Z,18.82
2022-10-23T16:20:06.296Z,18.74
2022-10-23T16:22:36.984Z,18.68
2022-10-23T16:25:08.356Z,18.50
2022-10-23T16:27:36.781Z,18.66
2022-10-23T16:30:09.091Z,18.61
2022-10-23T16:32:37.591Z,18.55
2022-10-23T16:35:09.810Z,18.33
2022-10-23T16:37:54.915Z,18.20
2022-10-23T16:40:24.417Z,17.82
2022-10-23T16:43:11.498Z,17.88
2022-10-23T16:45:48.390Z,17.99
2022-10-23T16:48:17.294Z,17.80
2022-10-23T16:50:45.698Z,17.92
2022-10-23T16:53:15.497Z,17.93
2022-10-23T16:55:44.100Z,17.83
2022-10-23T16:58:12.640Z,17.88
2022-10-23T17:00:41.672Z,17.93
2022-10-23T17:03:13.861Z,17.91
2022-10-23T17:05:42.878Z,17.78
2022-10-23T17:08:11.293Z,17.86
2022-10-23T17:10:41.122Z,17.83
2022-10-23T17:13:09.854Z,17.79
2022-10-23T17:15:41.268Z,17.84
2022-10-23T17:18:09.920Z,17.72
2022-10-23T17:20:39.170Z,17.55
2022-10-23T17:23:07.641Z,17.53
2022-10-23T17:25:36.559Z,17.51
2022-10-23T17:28:06.910Z,17.43
2022-10-23T17:30:39.457Z,17.41
2022-10-23T17:33:08.893Z,17.25
2022-10-23T17:35:37.594Z,17.22
2022-10-23T17:38:09.007Z,17.10
2022-10-23T17:40:37.764Z,17.20
2022-10-23T17:43:08.067Z,17.08
2022-10-23T17:45:36.819Z,17.12
2022-10-23T17:48:05.894Z,17.09
2022-10-23T17:50:34.703Z,17.07
2022-10-23T17:53:07.130Z,17.04
2022-10-23T17:55:40.006Z,17.04
2022-10-23T17:58:10.216Z,17.01
2022-10-23T18:00:39.443Z,16.95
2022-10-23T18:03:07.936Z,16.93
2022-10-23T18:05:37.137Z,16.91
2022-10-23T18:08:05.963Z,16.93
2022-10-23T18:10:37.483Z,16.89
2022-10-23T18:13:06.092Z,16.95
2022-10-23T18:15:36.873Z,16.96
2022-10-23T18:18:07.951Z,16.93
2022-10-23T18:20:41.155Z,17.02
2022-10-23T18:23:10.283Z,16.98
2022-10-23T18:25:43.782Z,17.09
2022-10-23T18:28:12.201Z,17.08
2022-10-23T18:30:42.507Z,17.13
2022-10-23T18:33:10.927Z,17.05
2022-10-23T18:35:39.379Z,17.04
2022-10-23T18:38:07.864Z,16.98
2022-10-23T18:40:37.743Z,16.95
2022-10-23T18:43:11.617Z,16.98
2022-10-23T18:45:44.890Z,16.99
2022-10-23T18:48:13.731Z,16.97
2022-10-23T18:50:42.204Z,17.01
2022-10-23T18:53:10.657Z,17.05
2022-10-23T18:55:46.202Z,17.08
2022-10-23T18:58:14.960Z,17.11
2022-10-23T19:00:45.307Z,17.13
2022-10-23T19:03:14.544Z,17.05
2022-10-23T19:05:43.858Z,17.01
2022-10-23T19:08:12.962Z,17.03
2022-10-23T19:10:43.896Z,17.03
2022-10-23T19:13:12.329Z,16.91
2022-10-23T19:15:40.792Z,16.87
2022-10-23T19:18:10.801Z,16.78
2022-10-23T19:20:39.529Z,16.67
2022-10-23T19:23:11.667Z,16.62
2022-10-23T19:25:47.916Z,16.61
2022-10-23T19:28:16.485Z,16.54
2022-10-23T19:30:44.876Z,16.51
2022-10-23T19:33:14.691Z,16.50
2022-10-23T19:35:43.274Z,16.52
2022-10-23T19:38:11.765Z,16.54
2022-10-23T19:40:40.217Z,16.59
2022-10-23T19:43:08.755Z,16.54
2022-10-23T19:45:37.634Z,16.64
2022-10-23T19:48:06.579Z,16.48
2022-10-23T19:50:36.730Z,16.77
2022-10-23T19:53:05.220Z,16.80
2022-10-23T19:55:33.673Z,16.81
2022-10-23T19:58:02.497Z,16.84
2022-10-23T20:00:30.962Z,16.85
2022-10-23T20:02:59.425Z,16.86
2022-10-23T20:05:27.984Z,16.85
2022-10-23T20:07:57.890Z,16.73
2022-10-23T20:10:26.790Z,16.83
2022-10-23T20:13:02.306Z,16.93
2022-10-23T20:15:43.453Z,16.91
2022-10-23T20:18:11.897Z,16.91
2022-10-23T20:20:42.216Z,16.85
2022-10-23T20:23:24.521Z,16.75
2022-10-23T20:25:52.948Z,16.85
2022-10-23T20:28:21.890Z,16.77
2022-10-23T20:30:50.321Z,16.80
2022-10-23T20:33:18.770Z,16.76
2022-10-23T20:35:47.265Z,16.66
2022-10-23T20:38:17.166Z,16.64
2022-10-23T20:40:45.598Z,16.67
2022-10-23T20:43:13.998Z,16.61
2022-10-23T20:45:42.431Z,16.64
2022-10-23T20:48:10.898Z,16.61
2022-10-23T20:50:39.543Z,16.45
2022-10-23T20:53:07.994Z,16.40
2022-10-23T20:55:42.156Z,16.37
2022-10-23T20:58:11.078Z,16.22
2022-10-23T21:00:40.095Z,16.02
2022-10-23T21:03:08.606Z,16.02
2022-10-23T21:05:37.034Z,15.91
2022-10-23T21:08:05.687Z,16.08
2022-10-23T21:10:34.164Z,15.97
2022-10-23T21:13:05.030Z,16.13
2022-10-23T21:15:33.871Z,16.26
2022-10-23T21:18:13.076Z,16.29
2022-10-23T21:20:51.395Z,16.26
2022-10-23T21:23:20.022Z,16.35
2022-10-23T21:25:48.529Z,16.41
2022-10-23T21:28:18.544Z,16.38
2022-10-23T21:30:46.966Z,16.21
2022-10-23T21:33:15.491Z,16.19
2022-10-23T21:35:57.843Z,16.33
2022-10-23T21:38:27.360Z,16.24
2022-10-23T21:40:55.887Z,16.17
2022-10-23T21:43:25.670Z,16.14
2022-10-23T21:45:56.754Z,16.14
2022-10-23T21:48:27.264Z,16.09
2022-10-23T21:50:58.831Z,16.13
2022-10-23T21:53:28.296Z,16.11
2022-10-23T21:56:02.052Z,15.85
2022-10-23T21:58:32.278Z,15.86
2022-10-23T22:01:02.042Z,15.85
2022-10-23T22:03:30.522Z,15.85
2022-10-23T22:05:59.436Z,15.80
2022-10-23T22:08:28.224Z,15.73
2022-10-23T22:10:56.629Z,15.63
2022-10-23T22:13:25.532Z,15.76
2022-10-23T22:15:55.773Z,15.67
2022-10-23T22:18:24.289Z,15.61
2022-10-23T22:20:53.040Z,15.58
2022-10-23T22:23:21.527Z,15.48
2022-10-23T22:25:49.941Z,15.41
2022-10-23T22:28:18.384Z,15.40
2022-10-23T22:30:52.861Z,15.25
2022-10-23T22:33:22.905Z,15.33
2022-10-23T22:35:51.337Z,15.32
2022-10-23T22:38:19.828Z,15.18
2022-10-23T22:43:22.200Z,15.18
2022-10-23T22:45:50.640Z,15.16
2022-10-23T22:48:19.064Z,15.18
2022-10-23T22:50:49.479Z,15.11
2022-10-23T22:53:18.181Z,15.10
2022-10-23T22:55:46.626Z,15.03
2022-10-23T22:58:15.470Z,15.03
2022-10-23T23:00:45.143Z,14.96
2022-10-23T23:03:13.853Z,14.97
2022-10-23T23:05:43.675Z,15.01
2022-10-23T23:08:13.889Z,15.00
2022-10-23T23:10:42.675Z,15.08
2022-10-23T23:13:11.097Z,15.09
2022-10-23T23:15:42.702Z,15.34
2022-10-23T23:18:11.137Z,15.38
2022-10-23T23:20:39.566Z,15.40
2022-10-23T23:23:08.167Z,15.49
2022-10-23T23:25:42.137Z,15.63
2022-10-23T23:28:12.681Z,15.56
2022-10-23T23:30:42.175Z,15.45
2022-10-23T23:33:11.625Z,15.41
2022-10-23T23:35:41.893Z,15.39
2022-10-23T23:38:11.029Z,15.52
2022-10-23T23:40:41.726Z,15.56
2022-10-23T23:43:10.494Z,15.71
2022-10-23T23:45:38.915Z,15.77
2022-10-23T23:48:07.881Z,15.69
2022-10-23T23:50:36.352Z,15.79
2022-10-23T23:53:04.790Z,15.65
2022-10-23T23:55:33.532Z,15.49
2022-10-23T23:58:03.667Z,15.47
